sensor_id;sensor_type;location;lat;lon;timestamp;pressure;altitude;pressure_sealevel;temperature;humidity
48517;BME280;34310;51.904;4.256;2023-04-01T00:01:54;99223.88;;;15.35;63.60
48517;BME280;34310;51.904;4.256;2023-04-01T00:04:21;99224.75;;;15.35;63.43
48517;BME280;34310;51.904;4.256;2023-04-01T00:06:49;99231.69;;;15.35;63.44
48517;BME280;34310;51.904;4.256;2023-04-01T00:09:16;99231.69;;;15.35;63.60
48517;BME280;34310;51.904;4.256;2023-04-01T00:11:44;99235.16;;;15.35;63.43
48517;BME280;34310;51.904;4.256;2023-04-01T00:14:12;99229.06;;;15.35;63.43
48517;BME280;34310;51.904;4.256;2023-04-01T00:16:39;99241.19;;;15.34;63.59
48517;BME280;34310;51.904;4.256;2023-04-01T00:19:07;99237.72;;;15.34;63.58
48517;BME280;34310;51.904;4.256;2023-04-01T00:21:35;99242.03;;;15.33;63.58
48517;BME280;34310;51.904;4.256;2023-04-01T00:24:04;99239.44;;;15.33;63.50
48517;BME280;34310;51.904;4.256;2023-04-01T00:26:31;99238.56;;;15.33;63.42
48517;BME280;34310;51.904;4.256;2023-04-01T00:28:59;99245.44;;;15.32;63.55
48517;BME280;34310;51.904;4.256;2023-04-01T00:31:26;99249.78;;;15.32;63.51
48517;BME280;34310;51.904;4.256;2023-04-01T00:33:54;99249.78;;;15.32;63.50
48517;BME280;34310;51.904;4.256;2023-04-01T00:36:22;99248.88;;;15.31;63.49
48517;BME280;34310;51.904;4.256;2023-04-01T00:38:50;99253.25;;;15.32;63.50
48517;BME280;34310;51.904;4.256;2023-04-01T00:41:21;99250.59;;;15.31;63.40
48517;BME280;34310;51.904;4.256;2023-04-01T00:43:50;99253.22;;;15.31;63.45
48517;BME280;34310;51.904;4.256;2023-04-01T00:46:18;99266.22;;;15.31;63.56
48517;BME280;34310;51.904;4.256;2023-04-01T00:48:50;99272.25;;;15.30;63.53
48517;BME280;34310;51.904;4.256;2023-04-01T00:51:22;99269.66;;;15.30;63.56
48517;BME280;34310;51.904;4.256;2023-04-01T00:53:54;99266.16;;;15.29;63.38
48517;BME280;34310;51.904;4.256;2023-04-01T00:56:30;99272.22;;;15.28;63.43
48517;BME280;34310;51.904;4.256;2023-04-01T00:59:02;99281.72;;;15.28;63.57
48517;BME280;34310;51.904;4.256;2023-04-01T01:01:30;99273.06;;;15.27;63.51
48517;BME280;34310;51.904;4.256;2023-04-01T01:03:58;99279.97;;;15.27;63.54
48517;BME280;34310;51.904;4.256;2023-04-01T01:06:39;99284.34;;;15.28;63.48
48517;BME280;34310;51.904;4.256;2023-04-01T01:11:50;99281.69;;;15.26;63.59
48517;BME280;34310;51.904;4.256;2023-04-01T01:16:58;99289.44;;;15.25;63.48
48517;BME280;34310;51.904;4.256;2023-04-01T01:22:43;99292.94;;;15.25;63.51
48517;BME280;34310;51.904;4.256;2023-04-01T01:25:40;99294.69;;;15.26;63.52
48517;BME280;34310;51.904;4.256;2023-04-01T01:36:35;99296.34;;;15.23;63.57
48517;BME280;34310;51.904;4.256;2023-04-01T01:39:05;99299.81;;;15.23;63.66
48517;BME280;34310;51.904;4.256;2023-04-01T01:41:35;99296.34;;;15.23;63.57
48517;BME280;34310;51.904;4.256;2023-04-01T01:44:07;99298.94;;;15.23;63.46
48517;BME280;34310;51.904;4.256;2023-04-01T01:46:35;99307.59;;;15.23;63.55
48517;BME280;34310;51.904;4.256;2023-04-01T01:49:06;99315.41;;;15.23;63.46
48517;BME280;34310;51.904;4.256;2023-04-01T01:51:34;99316.25;;;15.22;63.47
48517;BME280;34310;51.904;4.256;2023-04-01T01:54:02;99316.25;;;15.22;63.45
48517;BME280;34310;51.904;4.256;2023-04-01T01:56:29;99314.50;;;15.21;63.63
48517;BME280;34310;51.904;4.256;2023-04-01T01:59:04;99328.38;;;15.22;63.56
48517;BME280;34310;51.904;4.256;2023-04-01T02:01:39;99324.88;;;15.21;63.54
48517;BME280;34310;51.904;4.256;2023-04-01T02:04:10;99330.09;;;15.21;63.58
48517;BME280;34310;51.904;4.256;2023-04-01T02:06:41;99330.09;;;15.21;63.54
48517;BME280;34310;51.904;4.256;2023-04-01T02:09:11;99330.94;;;15.20;63.50
48517;BME280;34310;51.904;4.256;2023-04-01T02:11:49;99337.88;;;15.21;63.39
48517;BME280;34310;51.904;4.256;2023-04-01T02:14:21;99347.38;;;15.19;63.51
48517;BME280;34310;51.904;4.256;2023-04-01T02:19:27;99349.09;;;15.18;63.48
48517;BME280;34310;51.904;4.256;2023-04-01T02:21:59;99343.00;;;15.18;63.68
48517;BME280;34310;51.904;4.256;2023-04-01T02:24:30;99348.19;;;15.18;63.50
48517;BME280;34310;51.904;4.256;2023-04-01T02:26:58;99358.66;;;15.19;63.42
48517;BME280;34310;51.904;4.256;2023-04-01T02:29:26;99355.13;;;15.17;63.43
48517;BME280;34310;51.904;4.256;2023-04-01T02:31:54;99362.09;;;15.18;63.44
48517;BME280;34310;51.904;4.256;2023-04-01T02:34:22;99364.63;;;15.17;63.63
48517;BME280;34310;51.904;4.256;2023-04-01T02:36:51;99361.16;;;15.16;63.48
48517;BME280;34310;51.904;4.256;2023-04-01T02:39:20;99371.59;;;15.18;63.49
48517;BME280;34310;51.904;4.256;2023-04-01T02:41:47;99364.63;;;15.17;63.49
48517;BME280;34310;51.904;4.256;2023-04-01T02:44:15;99369.78;;;15.15;63.63
48517;BME280;34310;51.904;4.256;2023-04-01T02:46:43;99374.13;;;15.15;63.38
48517;BME280;34310;51.904;4.256;2023-04-01T02:49:11;99382.81;;;15.15;63.64
48517;BME280;34310;51.904;4.256;2023-04-01T02:51:38;99381.06;;;15.16;63.57
48517;BME280;34310;51.904;4.256;2023-04-01T02:54:05;99383.69;;;15.16;63.52
48517;BME280;34310;51.904;4.256;2023-04-01T02:56:32;99384.50;;;15.15;63.45
48517;BME280;34310;51.904;4.256;2023-04-01T02:59:00;99384.47;;;15.13;63.64
48517;BME280;34310;51.904;4.256;2023-04-01T03:01:27;99391.44;;;15.14;63.58
48517;BME280;34310;51.904;4.256;2023-04-01T03:03:54;99394.91;;;15.15;63.45
48517;BME280;34310;51.904;4.256;2023-04-01T03:06:22;99396.63;;;15.14;63.49
48517;BME280;34310;51.904;4.256;2023-04-01T03:08:49;99399.22;;;15.14;63.48
48517;BME280;34310;51.904;4.256;2023-04-01T03:11:17;99402.66;;;15.13;63.55
48517;BME280;34310;51.904;4.256;2023-04-01T03:13:44;99406.09;;;15.12;63.51
48517;BME280;34310;51.904;4.256;2023-04-01T03:16:11;99408.75;;;15.14;63.39
48517;BME280;34310;51.904;4.256;2023-04-01T03:18:39;99414.78;;;15.13;63.64
48517;BME280;34310;51.904;4.256;2023-04-01T03:21:17;99415.63;;;15.12;63.46
48517;BME280;34310;51.904;4.256;2023-04-01T03:23:45;99427.75;;;15.11;63.48
48517;BME280;34310;51.904;4.256;2023-04-01T03:26:13;99427.75;;;15.11;63.50
48517;BME280;34310;51.904;4.256;2023-04-01T03:28:40;99436.41;;;15.12;63.48
48517;BME280;34310;51.904;4.256;2023-04-01T03:31:08;99440.78;;;15.13;63.51
48517;BME280;34310;51.904;4.256;2023-04-01T03:33:35;99450.31;;;15.12;63.51
48517;BME280;34310;51.904;4.256;2023-04-01T03:36:03;99453.72;;;15.11;63.50
48517;BME280;34310;51.904;4.256;2023-04-01T03:38:36;99451.13;;;15.11;63.60
48517;BME280;34310;51.904;4.256;2023-04-01T03:41:03;99456.34;;;15.11;63.54
48517;BME280;34310;51.904;4.256;2023-04-01T03:43:30;99457.19;;;15.10;63.57
48517;BME280;34310;51.904;4.256;2023-04-01T03:45:58;99464.13;;;15.11;63.66
48517;BME280;34310;51.904;4.256;2023-04-01T03:48:26;99465.84;;;15.11;63.77
48517;BME280;34310;51.904;4.256;2023-04-01T03:50:53;99471.88;;;15.10;63.76
48517;BME280;34310;51.904;4.256;2023-04-01T03:53:20;99479.69;;;15.10;63.69
48517;BME280;34310;51.904;4.256;2023-04-01T03:55:48;99477.13;;;15.11;63.68
48517;BME280;34310;51.904;4.256;2023-04-01T03:58:15;99486.66;;;15.11;63.65
48517;BME280;34310;51.904;4.256;2023-04-01T04:00:42;99484.03;;;15.11;63.86
48517;BME280;34310;51.904;4.256;2023-04-01T04:03:10;99489.25;;;15.11;63.77
48517;BME280;34310;51.904;4.256;2023-04-01T04:05:37;99497.03;;;15.11;63.66
48517;BME280;34310;51.904;4.256;2023-04-01T04:08:05;99497.88;;;15.10;63.85
48517;BME280;34310;51.904;4.256;2023-04-01T04:10:32;99499.66;;;15.11;63.76
48517;BME280;34310;51.904;4.256;2023-04-01T04:12:59;99506.56;;;15.10;63.79
48517;BME280;34310;51.904;4.256;2023-04-01T04:15:27;99507.44;;;15.11;63.86
48517;BME280;34310;51.904;4.256;2023-04-01T04:17:54;99515.25;;;15.11;63.81
48517;BME280;34310;51.904;4.256;2023-04-01T04:20:21;99521.31;;;15.11;63.79
48517;BME280;34310;51.904;4.256;2023-04-01T04:22:49;99525.63;;;15.11;63.90
48517;BME280;34310;51.904;4.256;2023-04-01T04:25:16;99533.44;;;15.11;63.77
48517;BME280;34310;51.904;4.256;2023-04-01T04:27:43;99534.28;;;15.10;63.75
48517;BME280;34310;51.904;4.256;2023-04-01T04:30:11;99536.03;;;15.11;63.76
48517;BME280;34310;51.904;4.256;2023-04-01T04:32:38;99542.97;;;15.10;63.76
48517;BME280;34310;51.904;4.256;2023-04-01T04:35:06;99544.72;;;15.11;63.91
48517;BME280;34310;51.904;4.256;2023-04-01T04:37:33;99546.44;;;15.11;63.80
48517;BME280;34310;51.904;4.256;2023-04-01T04:40:01;99553.41;;;15.12;63.68
48517;BME280;34310;51.904;4.256;2023-04-01T04:42:28;99561.19;;;15.12;63.81
48517;BME280;34310;51.904;4.256;2023-04-01T04:44:56;99556.00;;;15.12;63.74
48517;BME280;34310;51.904;4.256;2023-04-01T04:47:23;99563.81;;;15.12;63.76
48517;BME280;34310;51.904;4.256;2023-04-01T04:49:50;99565.53;;;15.11;63.68
48517;BME280;34310;51.904;4.256;2023-04-01T04:52:18;99575.03;;;15.11;63.70
48517;BME280;34310;51.904;4.256;2023-04-01T04:54:45;99576.78;;;15.12;63.74
48517;BME280;34310;51.904;4.256;2023-04-01T04:57:12;99586.31;;;15.11;63.66
48517;BME280;34310;51.904;4.256;2023-04-01T04:59:40;99584.59;;;15.12;63.80
48517;BME280;34310;51.904;4.256;2023-04-01T05:02:07;99593.22;;;15.11;63.85
48517;BME280;34310;51.904;4.256;2023-04-01T05:04:36;99587.19;;;15.12;63.71
48517;BME280;34310;51.904;4.256;2023-04-01T05:07:03;99599.31;;;15.11;63.63
48517;BME280;34310;51.904;4.256;2023-04-01T05:09:31;99603.63;;;15.11;63.80
48517;BME280;34310;51.904;4.256;2023-04-01T05:11:59;99610.59;;;15.12;63.76
48517;BME280;34310;51.904;4.256;2023-04-01T05:14:26;99615.75;;;15.10;63.81
48517;BME280;34310;51.904;4.256;2023-04-01T05:16:53;99615.75;;;15.10;63.63
48517;BME280;34310;51.904;4.256;2023-04-01T05:19:21;99620.09;;;15.11;63.87
48517;BME280;34310;51.904;4.256;2023-04-01T05:21:49;99629.63;;;15.11;63.85
48517;BME280;34310;51.904;4.256;2023-04-01T05:24:17;99632.22;;;15.11;63.84
48517;BME280;34310;51.904;4.256;2023-04-01T05:26:44;99636.53;;;15.10;63.68
48517;BME280;34310;51.904;4.256;2023-04-01T05:29:11;99633.94;;;15.10;63.75
48517;BME280;34310;51.904;4.256;2023-04-01T05:31:39;99653.03;;;15.11;63.70
48517;BME280;34310;51.904;4.256;2023-04-01T05:34:06;99639.16;;;15.10;63.70
48517;BME280;34310;51.904;4.256;2023-04-01T05:36:34;99652.13;;;15.10;63.83
48517;BME280;34310;51.904;4.256;2023-04-01T05:39:03;99652.97;;;15.09;63.69
48517;BME280;34310;51.904;4.256;2023-04-01T05:41:30;99659.06;;;15.10;63.69
48517;BME280;34310;51.904;4.256;2023-04-01T05:43:57;99656.41;;;15.08;63.77
48517;BME280;34310;51.904;4.256;2023-04-01T05:46:25;99664.22;;;15.08;63.61
48517;BME280;34310;51.904;4.256;2023-04-01T05:48:52;99674.66;;;15.10;63.71
48517;BME280;34310;51.904;4.256;2023-04-01T05:51:20;99676.41;;;15.11;63.64
48517;BME280;34310;51.904;4.256;2023-04-01T05:53:47;99685.00;;;15.08;63.71
48517;BME280;34310;51.904;4.256;2023-04-01T05:56:15;99688.53;;;15.10;63.62
48517;BME280;34310;51.904;4.256;2023-04-01T05:58:42;99696.22;;;15.07;63.65
48517;BME280;34310;51.904;4.256;2023-04-01T06:01:11;99695.44;;;15.10;63.74
48517;BME280;34310;51.904;4.256;2023-04-01T06:03:42;99707.56;;;15.09;63.63
48517;BME280;34310;51.904;4.256;2023-04-01T06:06:24;99708.41;;;15.08;63.77
48517;BME280;34310;51.904;4.256;2023-04-01T06:08:53;99721.44;;;15.10;63.69
48517;BME280;34310;51.904;4.256;2023-04-01T06:22:43;99734.38;;;15.08;63.71
48517;BME280;34310;51.904;4.256;2023-04-01T06:31:03;99747.44;;;15.10;63.68
48517;BME280;34310;51.904;4.256;2023-04-01T06:44:49;99762.94;;;15.07;63.82
48517;BME280;34310;51.904;4.256;2023-04-01T06:55:24;99762.94;;;15.07;63.88
48517;BME280;34310;51.904;4.256;2023-04-01T06:57:55;99766.41;;;15.07;63.91
48517;BME280;34310;51.904;4.256;2023-04-01T07:00:35;99775.94;;;15.07;63.88
48517;BME280;34310;51.904;4.256;2023-04-01T07:03:30;99774.28;;;15.09;64.00
48517;BME280;34310;51.904;4.256;2023-04-01T07:06:11;99785.56;;;15.09;63.97
48517;BME280;34310;51.904;4.256;2023-04-01T07:08:41;99781.19;;;15.08;63.94
48517;BME280;34310;51.904;4.256;2023-04-01T07:11:14;99782.97;;;15.09;63.83
48517;BME280;34310;51.904;4.256;2023-04-01T07:13:53;99789.88;;;15.09;63.87
48517;BME280;34310;51.904;4.256;2023-04-01T07:16:32;99790.75;;;15.09;63.94
48517;BME280;34310;51.904;4.256;2023-04-01T07:19:16;99796.78;;;15.08;63.89
48517;BME280;34310;51.904;4.256;2023-04-01T07:21:49;99801.97;;;15.08;63.88
48517;BME280;34310;51.904;4.256;2023-04-01T07:24:24;99813.31;;;15.10;64.07
48517;BME280;34310;51.904;4.256;2023-04-01T07:26:57;99812.44;;;15.10;63.87
48517;BME280;34310;51.904;4.256;2023-04-01T07:29:25;99806.34;;;15.09;63.88
48517;BME280;34310;51.904;4.256;2023-04-01T07:35:11;99821.13;;;15.10;63.94
48517;BME280;34310;51.904;4.256;2023-04-01T07:45:42;99829.81;;;15.11;63.90
48517;BME280;34310;51.904;4.256;2023-04-01T07:48:25;99834.13;;;15.10;63.89
48517;BME280;34310;51.904;4.256;2023-04-01T07:51:10;99833.22;;;15.10;64.05
48517;BME280;34310;51.904;4.256;2023-04-01T08:10:46;99872.28;;;15.11;63.93
48517;BME280;34310;51.904;4.256;2023-04-01T08:22:16;99887.81;;;15.10;64.07
48517;BME280;34310;51.904;4.256;2023-04-01T08:24:49;99880.84;;;15.09;64.01
48517;BME280;34310;51.904;4.256;2023-04-01T08:27:41;99890.44;;;15.10;63.92
48517;BME280;34310;51.904;4.256;2023-04-01T08:30:53;99896.50;;;15.10;63.86
48517;BME280;34310;51.904;4.256;2023-04-01T08:33:25;99899.13;;;15.10;64.06
48517;BME280;34310;51.904;4.256;2023-04-01T08:36:05;99909.50;;;15.10;63.99
48517;BME280;34310;51.904;4.256;2023-04-01T08:38:41;99906.09;;;15.11;63.97
48517;BME280;34310;51.904;4.256;2023-04-01T08:41:37;99907.78;;;15.11;63.89
48517;BME280;34310;51.904;4.256;2023-04-01T08:52:36;99925.22;;;15.13;63.95
48517;BME280;34310;51.904;4.256;2023-04-01T08:55:25;99925.22;;;15.13;63.90
48517;BME280;34310;51.904;4.256;2023-04-01T09:00:33;99939.06;;;15.12;64.00
48517;BME280;34310;51.904;4.256;2023-04-01T09:04:25;99938.22;;;15.13;63.98
48517;BME280;34310;51.904;4.256;2023-04-01T09:32:26;99976.41;;;15.14;63.80
48517;BME280;34310;51.904;4.256;2023-04-01T09:38:20;99977.28;;;15.15;63.93
48517;BME280;34310;51.904;4.256;2023-04-01T09:43:54;99976.44;;;15.16;63.94
48517;BME280;34310;51.904;4.256;2023-04-01T09:52:43;99985.97;;;15.15;63.86
48517;BME280;34310;51.904;4.256;2023-04-01T10:03:52;100005.94;;;15.16;63.84
48517;BME280;34310;51.904;4.256;2023-04-01T10:15:56;100016.41;;;15.18;63.82
48517;BME280;34310;51.904;4.256;2023-04-01T10:21:28;100021.59;;;15.18;63.75
48517;BME280;34310;51.904;4.256;2023-04-01T10:26:53;100023.31;;;15.17;63.78
48517;BME280;34310;51.904;4.256;2023-04-01T10:38:06;100032.06;;;15.19;63.69
48517;BME280;34310;51.904;4.256;2023-04-01T10:49:43;100038.97;;;15.19;63.69
48517;BME280;34310;51.904;4.256;2023-04-01T11:06:43;100045.06;;;15.19;63.79
48517;BME280;34310;51.904;4.256;2023-04-01T11:12:39;100061.53;;;15.20;63.80
48517;BME280;34310;51.904;4.256;2023-04-01T11:23:18;100069.34;;;15.20;63.68
48517;BME280;34310;51.904;4.256;2023-04-01T11:26:05;100075.44;;;15.21;63.71
48517;BME280;34310;51.904;4.256;2023-04-01T11:29:24;100076.31;;;15.21;63.76
48517;BME280;34310;51.904;4.256;2023-04-01T11:32:20;100084.13;;;15.21;63.63
48517;BME280;34310;51.904;4.256;2023-04-01T11:38:26;100087.53;;;15.20;63.69
48517;BME280;34310;51.904;4.256;2023-04-01T11:43:34;100096.28;;;15.22;63.87
48517;BME280;34310;51.904;4.256;2023-04-01T11:51:54;100111.91;;;15.22;63.73
48517;BME280;34310;51.904;4.256;2023-04-01T12:03:29;100120.59;;;15.23;63.75
48517;BME280;34310;51.904;4.256;2023-04-01T12:09:04;100122.31;;;15.22;63.79
48517;BME280;34310;51.904;4.256;2023-04-01T12:17:57;100133.59;;;15.23;63.65
48517;BME280;34310;51.904;4.256;2023-04-01T12:23:28;100142.28;;;15.23;63.76
48517;BME280;34310;51.904;4.256;2023-04-01T12:32:03;100146.66;;;15.24;63.78
48517;BME280;34310;51.904;4.256;2023-04-01T12:37:20;100150.06;;;15.23;63.68
48517;BME280;34310;51.904;4.256;2023-04-01T12:40:01;100160.47;;;15.23;63.68
48517;BME280;34310;51.904;4.256;2023-04-01T12:45:38;100172.66;;;15.24;63.70
48517;BME280;34310;51.904;4.256;2023-04-01T12:58:05;100188.31;;;15.26;63.74
48517;BME280;34310;51.904;4.256;2023-04-01T13:12:05;100198.78;;;15.27;63.69
48517;BME280;34310;51.904;4.256;2023-04-01T13:19:36;100199.63;;;15.26;63.65
48517;BME280;34310;51.904;4.256;2023-04-01T13:22:41;100197.00;;;15.26;63.62
48517;BME280;34310;51.904;4.256;2023-04-01T13:28:21;100218.72;;;15.27;63.68
48517;BME280;34310;51.904;4.256;2023-04-01T13:31:02;100220.41;;;15.26;63.65
48517;BME280;34310;51.904;4.256;2023-04-01T13:33:50;100218.72;;;15.27;63.60
48517;BME280;34310;51.904;4.256;2023-04-01T13:36:59;100223.03;;;15.26;63.73
48517;BME280;34310;51.904;4.256;2023-04-01T13:42:25;100234.31;;;15.27;63.79
48517;BME280;34310;51.904;4.256;2023-04-01T13:45:01;100231.72;;;15.27;63.78
48517;BME280;34310;51.904;4.256;2023-04-01T13:59:40;100241.22;;;15.26;63.71
48517;BME280;34310;51.904;4.256;2023-04-01T14:07:44;100254.22;;;15.26;63.65
48517;BME280;34310;51.904;4.256;2023-04-01T14:41:57;100301.09;;;15.28;63.74
48517;BME280;34310;51.904;4.256;2023-04-01T14:49:53;100321.03;;;15.27;63.65
48517;BME280;34310;51.904;4.256;2023-04-01T14:52:42;100317.53;;;15.27;63.66
48517;BME280;34310;51.904;4.256;2023-04-01T14:55:28;100324.50;;;15.28;63.61
48517;BME280;34310;51.904;4.256;2023-04-01T15:01:11;100326.22;;;15.27;63.67
48517;BME280;34310;51.904;4.256;2023-04-01T15:07:02;100326.22;;;15.27;63.68
48517;BME280;34310;51.904;4.256;2023-04-01T15:18:07;100341.81;;;15.27;63.67
48517;BME280;34310;51.904;4.256;2023-04-01T15:23:54;100353.13;;;15.28;63.73
48517;BME280;34310;51.904;4.256;2023-04-01T15:32:19;100364.34;;;15.27;63.61
48517;BME280;34310;51.904;4.256;2023-04-01T15:37:49;100377.34;;;15.27;63.62
48517;BME280;34310;51.904;4.256;2023-04-01T15:40:27;100373.84;;;15.26;63.77
48517;BME280;34310;51.904;4.256;2023-04-01T15:49:18;100386.88;;;15.26;63.73
48517;BME280;34310;51.904;4.256;2023-04-01T15:51:48;100397.34;;;15.28;63.76
48517;BME280;34310;51.904;4.256;2023-04-01T15:57:13;100404.25;;;15.27;63.76
48517;BME280;34310;51.904;4.256;2023-04-01T16:02:45;100400.75;;;15.27;63.61
48517;BME280;34310;51.904;4.256;2023-04-01T16:05:25;100405.13;;;15.28;63.56
48517;BME280;34310;51.904;4.256;2023-04-01T16:10:52;100414.66;;;15.27;63.68
48517;BME280;34310;51.904;4.256;2023-04-01T16:19:01;100425.88;;;15.26;63.54
48517;BME280;34310;51.904;4.256;2023-04-01T16:21:48;100443.31;;;15.29;63.57
48517;BME280;34310;51.904;4.256;2023-04-01T16:24:48;100438.06;;;15.27;63.74
48517;BME280;34310;51.904;4.256;2023-04-01T16:27:25;100448.47;;;15.27;63.58
48517;BME280;34310;51.904;4.256;2023-04-01T16:30:23;100446.69;;;15.26;63.64
48517;BME280;34310;51.904;4.256;2023-04-01T16:33:12;100450.16;;;15.27;63.70
48517;BME280;34310;51.904;4.256;2023-04-01T16:38:26;100454.47;;;15.26;63.71
48517;BME280;34310;51.904;4.256;2023-04-01T16:43:40;100455.38;;;15.27;63.59
48517;BME280;34310;51.904;4.256;2023-04-01T16:46:32;100472.69;;;15.26;63.46
48517;BME280;34310;51.904;4.256;2023-04-01T16:54:28;100483.91;;;15.25;63.56
48517;BME280;34310;51.904;4.256;2023-04-01T17:00:00;100498.69;;;15.26;63.44
48517;BME280;34310;51.904;4.256;2023-04-01T17:02:38;100500.41;;;15.26;63.67
48517;BME280;34310;51.904;4.256;2023-04-01T17:05:12;100507.31;;;15.25;63.50
48517;BME280;34310;51.904;4.256;2023-04-01T17:07:56;100515.13;;;15.25;63.63
48517;BME280;34310;51.904;4.256;2023-04-01T17:21:10;100534.16;;;15.24;63.51
48517;BME280;34310;51.904;4.256;2023-04-01T17:24:21;100540.16;;;15.23;63.70
48517;BME280;34310;51.904;4.256;2023-04-01T17:52:27;100618.94;;;15.21;64.08
48517;BME280;34310;51.904;4.256;2023-04-01T17:57:46;100626.75;;;15.21;63.96
48517;BME280;34310;51.904;4.256;2023-04-01T18:00:38;100630.22;;;15.21;64.08
48517;BME280;34310;51.904;4.256;2023-04-01T18:06:45;100630.22;;;15.21;64.09
48517;BME280;34310;51.904;4.256;2023-04-01T18:12:40;100655.41;;;15.22;63.88
48517;BME280;34310;51.904;4.256;2023-04-01T18:27:36;100688.47;;;15.25;64.02
48517;BME280;34310;51.904;4.256;2023-04-01T18:30:11;100700.66;;;15.26;63.92
48517;BME280;34310;51.904;4.256;2023-04-01T18:32:57;100698.97;;;15.26;63.98
48517;BME280;34310;51.904;4.256;2023-04-01T18:38:38;100720.66;;;15.27;64.16
48517;BME280;34310;51.904;4.256;2023-04-01T18:44:41;100734.56;;;15.27;64.04
48517;BME280;34310;51.904;4.256;2023-04-01T18:56:00;100761.53;;;15.29;64.07
48517;BME280;34310;51.904;4.256;2023-04-01T18:58:35;100767.72;;;15.31;64.28
48517;BME280;34310;51.904;4.256;2023-04-01T19:01:16;100772.91;;;15.31;64.10
48517;BME280;34310;51.904;4.256;2023-04-01T19:09:42;100786.81;;;15.32;64.17
48517;BME280;34310;51.904;4.256;2023-04-01T19:12:48;100794.72;;;15.33;64.23
48517;BME280;34310;51.904;4.256;2023-04-01T19:16:00;100799.94;;;15.33;64.18
48517;BME280;34310;51.904;4.256;2023-04-01T19:21:19;100808.63;;;15.34;64.20
48517;BME280;34310;51.904;4.256;2023-04-01T19:35:51;100834.72;;;15.35;64.17
48517;BME280;34310;51.904;4.256;2023-04-01T19:38:41;100841.69;;;15.36;64.28
48517;BME280;34310;51.904;4.256;2023-04-01T19:46:58;100861.69;;;15.37;64.17
48517;BME280;34310;51.904;4.256;2023-04-01T19:49:36;100866.91;;;15.37;64.22
48517;BME280;34310;51.904;4.256;2023-04-01T19:52:14;100874.72;;;15.37;64.13
48517;BME280;34310;51.904;4.256;2023-04-01T19:57:58;100879.91;;;15.37;64.12
48517;BME280;34310;51.904;4.256;2023-04-01T20:00:39;100886.00;;;15.38;64.12
48517;BME280;34310;51.904;4.256;2023-04-01T20:06:10;100904.22;;;15.38;64.17
48517;BME280;34310;51.904;4.256;2023-04-01T20:09:09;100909.41;;;15.38;64.10
48517;BME280;34310;51.904;4.256;2023-04-01T20:14:38;100919.00;;;15.39;64.23
48517;BME280;34310;51.904;4.256;2023-04-01T20:25:46;100954.53;;;15.38;64.02
48517;BME280;34310;51.904;4.256;2023-04-01T20:41:49;100988.38;;;15.38;64.03
48517;BME280;34310;51.904;4.256;2023-04-01T20:52:45;101004.78;;;15.37;63.90
48517;BME280;34310;51.904;4.256;2023-04-01T20:58:37;101010.81;;;15.36;63.99
48517;BME280;34310;51.904;4.256;2023-04-01T21:01:32;101026.50;;;15.38;63.85
48517;BME280;34310;51.904;4.256;2023-04-01T21:07:17;101029.75;;;15.34;63.79
48517;BME280;34310;51.904;4.256;2023-04-01T22:11:05;101160.25;;;15.27;63.64
48517;BME280;34310;51.904;4.256;2023-04-01T22:13:53;101160.25;;;15.27;63.67
48517;BME280;34310;51.904;4.256;2023-04-01T22:16:35;101167.09;;;15.25;63.76
48517;BME280;34310;51.904;4.256;2023-04-01T22:19:16;101177.47;;;15.25;63.67
48517;BME280;34310;51.904;4.256;2023-04-01T22:21:59;101178.38;;;15.25;63.70
48517;BME280;34310;51.904;4.256;2023-04-01T22:30:20;101186.91;;;15.23;63.38
48517;BME280;34310;51.904;4.256;2023-04-01T22:33:07;101196.50;;;15.24;63.59
48517;BME280;34310;51.904;4.256;2023-04-01T22:41:49;101212.03;;;15.22;63.69
48517;BME280;34310;51.904;4.256;2023-04-01T22:44:33;101214.53;;;15.21;63.57
48517;BME280;34310;51.904;4.256;2023-04-01T22:53:03;101230.94;;;15.19;63.50
48517;BME280;34310;51.904;4.256;2023-04-01T22:55:35;101242.25;;;15.20;63.60
48517;BME280;34310;51.904;4.256;2023-04-01T22:58:28;101243.06;;;15.19;63.68
48517;BME280;34310;51.904;4.256;2023-04-01T23:01:01;101255.25;;;15.20;63.87
48517;BME280;34310;51.904;4.256;2023-04-01T23:03:36;101249.97;;;15.18;63.82
48517;BME280;34310;51.904;4.256;2023-04-01T23:06:47;101252.56;;;15.18;63.66
48517;BME280;34310;51.904;4.256;2023-04-01T23:09:11;101262.16;;;15.19;63.84
48517;BME280;34310;51.904;4.256;2023-04-01T23:11:52;101256.97;;;15.19;63.62
48517;BME280;34310;51.904;4.256;2023-04-01T23:17:03;101264.75;;;15.19;63.67
48517;BME280;34310;51.904;4.256;2023-04-01T23:24:55;101293.38;;;15.19;63.77
48517;BME280;34310;51.904;4.256;2023-04-01T23:27:39;101294.28;;;15.20;63.48
48517;BME280;34310;51.904;4.256;2023-04-01T23:33:26;101301.19;;;15.19;63.82
48517;BME280;34310;51.904;4.256;2023-04-01T23:36:01;101308.19;;;15.21;63.57
48517;BME280;34310;51.904;4.256;2023-04-01T23:38:38;101311.66;;;15.21;63.67
48517;BME280;34310;51.904;4.256;2023-04-01T23:41:07;101321.19;;;15.21;63.67
48517;BME280;34310;51.904;4.256;2023-04-01T23:43:41;101327.28;;;15.21;63.62
48517;BME280;34310;51.904;4.256;2023-04-01T23:46:09;101323.69;;;15.19;63.77
48517;BME280;34310;51.904;4.256;2023-04-01T23:48:41;101322.06;;;15.21;63.71
48517;BME280;34310;51.904;4.256;2023-04-01T23:51:20;101323.78;;;15.21;63.74
48517;BME280;34310;51.904;4.256;2023-04-01T23:53:59;101331.59;;;15.21;63.55
48517;BME280;34310;51.904;4.256;2023-04-01T23:56:50;101334.19;;;15.21;63.54
48517;BME280;34310;51.904;4.256;2023-04-01T23:59:35;101343.69;;;15.20;63.56
